Modesto City Co-Harry Sham Field
KMOD : now visible

Airfield :











YOU CAN JOIN US ON...

 
LOGIN :

Register | Disclaimer

   EN    FR    IT 

 









Legend :    VFR   Marginal VFR   IFR   Intensive IFR   Very Intensive IFR
Visi :
Ceiling :
>= 8 km
>= 3000ft
5 to 8 km
1000 to 3000 ft
1500m to 5 km
500 to 1000 ft
800 to 1500m
200 to 500 ft
< 800m
< 200 ft
Symbols :   Thunderstorms  Fog  Heavy snow  Heavy precipitations  Wind > 20 kt






- Airport Elevation : 97 ft
- IATA code : MOD


KMOD - Modesto City Co-Harry Sham Field

CURRENT METAR :
  • 041553Z 00000KT 10SM FEW120 10/05 A2992 RMK AO2 SLP131 T01000050

EXPIRED METARs :
  • 041453Z 00000KT 10SM FEW120 07/04 A2992 RMK AO2 SLP130 T00720044 53002
  • 041353Z 00000KT 10SM CLR 06/04 A2991 RMK AO2 SLP127 T00610039

TAF KMOD
Valid from the 04 at 12:00 until the 05 at 12:00 UTC


041130Z 0412/0512 VRB03KT P6SM SCT150
FM041800 13007KT P6SM VCSH OVC070
FM042100 16008KT P6SM -RA OVC040
TEMPO 0421/0501 5SM RA OVC025
FM050200 VRB05KT P6SM VCSH BKN040



MET'MAP, your aeronautical weather chart ! - Copyright ORBIFLY December 2007 - Disclaimer

ORBIFLY MET'MAP TEAM :

Programming & Development : Alexandra Zaïnal
Concept & original design : Baudouin d'Aumeries
Assistance for programming : Marc-Olivier Méhu
Technical & hardware support : Manuel Goepfert

Contact : metmap@orbifly.com




SOURCES & CREDITS :

   NOAA       Earth
Advisory